Time;durP1;ratioP1;P1;durP2;ratioP2;P2;SDS_P1;SDS_P2;PMS_P1;PMS_P2;Temp;Humidity;BMP_temperature;BMP_pressure;BME280_temperature;BME280_humidity;BME280_pressure;Samples;Min_cycle;Max_cycle;Signal;HPM_P1;HPM_P2
2024/01/25 00:01:06;;;;;;;22.08;5.03;;;9.70;99.90;;;;;;4995203;28;20034;-52
2024/01/25 00:03:32;;;;;;;27.42;6.13;;;9.70;99.90;;;;;;4995470;28;20163;-49
2024/01/25 00:05:57;;;;;;;30.63;5.43;;;9.60;99.90;;;;;;4994149;28;20038;-51
2024/01/25 00:08:23;;;;;;;23.92;5.38;;;9.60;99.90;;;;;;4994975;28;20033;-50
2024/01/25 00:10:49;;;;;;;27.25;5.63;;;9.50;99.90;;;;;;4994013;28;20041;-51
2024/01/25 00:13:14;;;;;;;18.40;4.03;;;9.40;99.90;;;;;;4995358;28;20026;-49
2024/01/25 00:15:40;;;;;;;24.25;5.38;;;9.40;99.90;;;;;;4995787;28;20030;-53
2024/01/25 00:18:05;;;;;;;31.77;5.47;;;9.40;99.90;;;;;;4994489;28;20030;-54
2024/01/25 00:20:31;;;;;;;25.25;5.10;;;9.30;99.90;;;;;;4994916;28;20020;-50
2024/01/25 00:22:57;;;;;;;25.15;4.72;;;9.20;99.90;;;;;;4995044;28;20061;-51
2024/01/25 00:25:22;;;;;;;36.42;6.00;;;9.30;99.90;;;;;;4995179;28;20404;-51
2024/01/25 00:27:48;;;;;;;23.50;6.18;;;9.30;99.90;;;;;;4994807;28;20399;-53
2024/01/25 00:30:13;;;;;;;26.70;6.18;;;9.30;99.90;;;;;;4994916;28;20029;-53
2024/01/25 00:32:39;;;;;;;22.60;5.18;;;9.20;99.90;;;;;;4994697;28;20066;-52
2024/01/25 00:35:05;;;;;;;20.52;6.00;;;9.20;99.90;;;;;;4994847;28;20033;-50
2024/01/25 00:37:31;;;;;;;22.45;5.10;;;9.20;99.90;;;;;;4994557;28;20041;-52
2024/01/25 00:39:57;;;;;;;30.50;6.65;;;9.10;99.90;;;;;;4994551;28;20496;-54
2024/01/25 00:42:23;;;;;;;23.75;4.60;;;9.10;99.90;;;;;;4994779;28;20093;-50
2024/01/25 00:44:49;;;;;;;21.90;4.07;;;9.10;99.90;;;;;;4994940;28;20112;-53
2024/01/25 00:47:15;;;;;;;14.98;4.53;;;9.20;99.90;;;;;;4994303;28;20078;-51
2024/01/25 00:49:41;;;;;;;21.77;4.38;;;9.20;99.90;;;;;;4993228;28;20030;-51
2024/01/25 00:52:07;;;;;;;26.15;4.25;;;9.20;99.90;;;;;;4994668;28;20110;-54
2024/01/25 00:54:33;;;;;;;35.08;5.68;;;9.20;99.90;;;;;;4994542;28;20503;-55
2024/01/25 00:56:59;;;;;;;39.78;8.23;;;9.30;99.90;;;;;;4994579;28;20034;-52
2024/01/25 00:59:25;;;;;;;21.95;4.88;;;9.40;99.90;;;;;;4992949;28;20030;-50
2024/01/25 01:01:52;;;;;;;20.15;3.88;;;9.40;99.90;;;;;;4994563;28;20023;-51
2024/01/25 01:04:18;;;;;;;28.38;5.45;;;9.50;99.90;;;;;;4994479;28;20174;-54
2024/01/25 01:06:44;;;;;;;19.67;4.38;;;9.50;99.90;;;;;;4993000;28;20126;-48
2024/01/25 01:09:10;;;;;;;33.47;5.00;;;9.50;99.90;;;;;;4994945;28;20026;-50
2024/01/25 01:11:36;;;;;;;27.77;4.85;;;9.40;99.90;;;;;;4995743;28;20061;-52
2024/01/25 01:14:02;;;;;;;30.27;4.95;;;9.40;99.90;;;;;;4994932;28;20041;-51
2024/01/25 01:16:30;;;;;;;17.42;5.53;;;9.40;99.90;;;;;;4992434;28;20022;-51
2024/01/25 01:18:56;;;;;;;19.33;4.63;;;9.40;99.90;;;;;;4993641;28;20033;-51
2024/01/25 01:21:21;;;;;;;28.05;5.55;;;9.40;99.90;;;;;;4994129;28;20027;-52
2024/01/25 01:23:46;;;;;;;24.05;3.78;;;9.40;99.90;;;;;;4993536;28;20026;-49
2024/01/25 01:26:12;;;;;;;22.65;4.35;;;9.30;99.90;;;;;;4992746;28;20069;-50
2024/01/25 01:28:37;;;;;;;26.38;6.72;;;9.30;99.90;;;;;;4992288;28;20030;-50
2024/01/25 01:31:03;;;;;;;29.75;6.05;;;9.30;99.90;;;;;;4992474;28;20029;-51
2024/01/25 01:33:28;;;;;;;16.38;4.22;;;9.30;99.90;;;;;;4993663;28;20400;-53
2024/01/25 01:35:54;;;;;;;32.35;6.85;;;9.40;99.90;;;;;;4993593;28;20053;-55
2024/01/25 01:38:19;;;;;;;13.95;3.75;;;9.40;99.90;;;;;;4991900;28;20022;-49
2024/01/25 01:40:46;;;;;;;26.27;4.78;;;9.40;99.90;;;;;;5008766;28;20061;-49
2024/01/25 01:43:23;;;;;;;21.45;5.05;;;9.30;99.90;;;;;;4993918;28;20023;-48
2024/01/25 01:45:48;;;;;;;28.92;6.13;;;9.30;99.90;;;;;;4993687;28;20395;-49
2024/01/25 01:48:15;;;;;;;23.13;4.47;;;9.30;99.90;;;;;;4993332;28;20121;-48
2024/01/25 01:50:41;;;;;;;21.88;5.75;;;9.40;99.90;;;;;;4994129;28;20109;-49
2024/01/25 01:53:06;;;;;;;23.60;4.03;;;9.40;99.90;;;;;;4992956;28;20089;-49
2024/01/25 01:55:32;;;;;;;28.92;5.43;;;9.40;99.90;;;;;;4992638;28;20022;-50
2024/01/25 01:57:59;;;;;;;25.77;5.68;;;9.30;99.90;;;;;;4992133;28;20027;-50
2024/01/25 02:00:25;;;;;;;21.50;3.97;;;9.40;99.90;;;;;;4992621;28;20034;-46
2024/01/25 02:02:50;;;;;;;22.00;4.57;;;9.30;99.90;;;;;;4992316;28;20026;-52
2024/01/25 02:05:16;;;;;;;22.95;5.28;;;9.30;99.90;;;;;;4993109;28;20109;-52
2024/01/25 02:07:42;;;;;;;15.30;4.15;;;9.30;99.90;;;;;;4992660;28;20034;-53
2024/01/25 02:10:09;;;;;;;22.58;4.57;;;9.30;99.90;;;;;;4992878;28;20514;-54
2024/01/25 02:12:35;;;;;;;23.02;4.28;;;9.30;99.90;;;;;;4993422;28;20448;-52
2024/01/25 02:15:00;;;;;;;29.20;5.97;;;9.20;99.90;;;;;;4991927;28;20439;-49
2024/01/25 02:17:26;;;;;;;26.73;5.13;;;9.10;99.90;;;;;;4992356;28;20034;-48
2024/01/25 02:19:51;;;;;;;23.15;3.63;;;9.10;99.90;;;;;;4992691;28;20026;-51
2024/01/25 02:22:19;;;;;;;20.70;4.80;;;9.00;99.90;;;;;;4991810;28;20026;-53
2024/01/25 02:24:45;;;;;;;15.95;3.95;;;9.00;99.90;;;;;;4991511;28;20018;-50
2024/01/25 02:27:10;;;;;;;31.70;6.13;;;8.90;99.90;;;;;;4992801;28;20488;-50
2024/01/25 02:29:36;;;;;;;30.30;5.60;;;8.90;99.90;;;;;;4992870;28;20038;-49
2024/01/25 02:32:02;;;;;;;28.50;5.20;;;8.80;99.90;;;;;;4994259;28;20027;-50
2024/01/25 02:34:28;;;;;;;38.55;5.25;;;8.90;99.90;;;;;;4992327;28;20094;-49
2024/01/25 02:36:53;;;;;;;31.73;4.93;;;8.70;99.90;;;;;;4992471;28;20029;-49
2024/01/25 02:39:19;;;;;;;28.10;5.50;;;8.70;99.90;;;;;;4994293;28;20023;-52
2024/01/25 02:41:44;;;;;;;25.90;5.22;;;8.70;99.90;;;;;;4993302;28;20026;-54
2024/01/25 02:44:10;;;;;;;23.85;6.57;;;8.70;99.90;;;;;;5007543;28;20458;-54
2024/01/25 02:46:36;;;;;;;18.13;4.30;;;8.60;99.90;;;;;;4992079;28;20503;-50
2024/01/25 02:49:02;;;;;;;27.33;4.70;;;8.60;99.90;;;;;;4992310;28;20026;-50
2024/01/25 02:51:27;;;;;;;19.38;4.30;;;8.50;99.90;;;;;;4990888;28;20466;-53
2024/01/25 02:53:53;;;;;;;17.35;6.00;;;8.50;99.90;;;;;;4992273;28;20073;-52
2024/01/25 02:56:18;;;;;;;19.85;3.92;;;8.40;99.90;;;;;;4992307;28;20030;-48
2024/01/25 02:58:44;;;;;;;25.40;6.22;;;8.40;99.90;;;;;;4992654;28;20088;-49
2024/01/25 03:01:09;;;;;;;22.50;5.10;;;8.40;99.90;;;;;;4993102;28;20022;-50
2024/01/25 03:03:35;;;;;;;25.38;4.63;;;8.40;99.90;;;;;;4992989;28;20027;-50
2024/01/25 03:06:00;;;;;;;23.17;4.28;;;8.30;99.90;;;;;;4992566;28;20034;-49
2024/01/25 03:08:26;;;;;;;25.35;5.13;;;8.30;99.90;;;;;;4992617;28;20031;-51
2024/01/25 03:10:51;;;;;;;21.70;4.60;;;8.20;99.90;;;;;;4992758;28;20031;-48
2024/01/25 03:13:17;;;;;;;23.08;4.57;;;8.30;99.90;;;;;;4992403;28;20027;-53
2024/01/25 03:15:43;;;;;;;21.40;4.13;;;8.30;99.90;;;;;;4992274;28;20165;-50
2024/01/25 03:18:09;;;;;;;21.63;6.78;;;8.30;99.90;;;;;;4992529;28;20023;-48
2024/01/25 03:20:35;;;;;;;25.27;4.32;;;8.30;99.90;;;;;;4992637;28;20023;-49
2024/01/25 03:23:00;;;;;;;31.92;5.53;;;8.30;99.90;;;;;;4993285;28;20062;-53
2024/01/25 03:25:26;;;;;;;29.92;5.30;;;8.30;99.90;;;;;;4993062;28;20492;-50
2024/01/25 03:27:51;;;;;;;33.33;5.35;;;8.30;99.90;;;;;;4992557;28;20026;-50
2024/01/25 03:30:17;;;;;;;31.23;5.40;;;8.30;99.90;;;;;;5008064;28;20459;-49
2024/01/25 03:32:42;;;;;;;26.35;4.88;;;8.30;99.90;;;;;;4992876;28;20046;-54
2024/01/25 03:35:08;;;;;;;20.63;4.55;;;8.30;99.90;;;;;;4992677;28;20431;-51
2024/01/25 03:37:33;;;;;;;28.83;6.00;;;8.30;99.90;;;;;;4992547;28;20038;-49
2024/01/25 03:39:59;;;;;;;22.00;5.10;;;8.20;99.90;;;;;;4992832;28;20560;-51
2024/01/25 03:42:24;;;;;;;19.08;4.40;;;8.30;99.90;;;;;;4993075;28;20050;-49
2024/01/25 03:44:50;;;;;;;24.70;6.13;;;8.30;99.90;;;;;;4992726;28;20065;-48
2024/01/25 03:47:15;;;;;;;36.25;5.00;;;8.40;99.90;;;;;;4995955;28;20030;-50
2024/01/25 03:49:41;;;;;;;29.35;5.57;;;8.50;99.90;;;;;;4994908;28;20062;-51
2024/01/25 03:52:07;;;;;;;22.55;5.47;;;8.50;99.90;;;;;;4998050;28;20042;-51
2024/01/25 03:54:32;;;;;;;26.73;4.45;;;8.50;99.90;;;;;;4999271;28;20065;-49
2024/01/25 03:56:58;;;;;;;26.17;4.75;;;8.50;99.90;;;;;;4998687;28;20173;-53
2024/01/25 03:59:23;;;;;;;24.10;5.60;;;8.60;99.90;;;;;;4999314;28;20491;-53
2024/01/25 04:01:49;;;;;;;21.55;4.63;;;8.60;99.90;;;;;;4997351;28;20034;-50
2024/01/25 04:04:17;;;;;;;24.02;4.22;;;8.60;99.90;;;;;;4995704;28;20117;-49
2024/01/25 04:06:45;;;;;;;26.55;5.22;;;8.60;99.90;;;;;;4995562;28;20026;-51
2024/01/25 04:09:11;;;;;;;21.13;4.82;;;8.60;99.90;;;;;;4995051;28;20098;-48
2024/01/25 04:11:37;;;;;;;26.58;5.35;;;8.60;99.90;;;;;;4995918;28;20046;-52
2024/01/25 04:14:03;;;;;;;23.65;5.07;;;8.50;99.90;;;;;;4996349;28;20026;-48
2024/01/25 04:16:29;;;;;;;22.13;4.65;;;8.50;99.90;;;;;;4995404;28;20037;-53
2024/01/25 04:18:54;;;;;;;28.08;5.90;;;8.50;99.90;;;;;;4995096;28;20030;-52
2024/01/25 04:21:20;;;;;;;19.52;4.75;;;8.50;99.90;;;;;;4995728;28;20026;-51
2024/01/25 04:23:45;;;;;;;29.38;5.28;;;8.50;99.90;;;;;;4995804;28;20057;-50
2024/01/25 04:26:11;;;;;;;24.92;6.05;;;8.50;99.90;;;;;;4995915;28;20030;-50
2024/01/25 04:28:36;;;;;;;21.33;5.60;;;8.40;99.90;;;;;;4995407;28;20034;-53
2024/01/25 04:31:03;;;;;;;25.48;4.38;;;8.40;99.90;;;;;;4995754;28;20125;-48
2024/01/25 04:33:29;;;;;;;31.52;4.93;;;8.40;99.90;;;;;;4996366;28;20027;-49
2024/01/25 04:35:55;;;;;;;29.88;7.25;;;8.30;99.90;;;;;;4996569;28;20037;-49
2024/01/25 04:38:20;;;;;;;24.35;5.57;;;8.30;99.90;;;;;;4995662;28;20022;-49
2024/01/25 04:40:46;;;;;;;24.33;4.13;;;8.30;99.90;;;;;;4994347;28;20418;-51
2024/01/25 04:43:12;;;;;;;28.38;5.00;;;8.20;99.90;;;;;;4993854;28;20027;-53
2024/01/25 04:45:37;;;;;;;36.33;5.20;;;8.10;99.90;;;;;;4994933;28;20165;-49
2024/01/25 04:48:03;;;;;;;18.15;4.70;;;8.10;99.90;;;;;;4995703;28;20073;-53
2024/01/25 04:50:29;;;;;;;28.52;4.93;;;8.10;99.90;;;;;;4995804;28;20073;-52
2024/01/25 04:52:54;;;;;;;25.35;4.40;;;8.00;99.90;;;;;;4995148;28;20358;-48
2024/01/25 04:55:20;;;;;;;31.83;6.43;;;8.00;99.90;;;;;;4994665;28;20381;-49
2024/01/25 04:57:47;;;;;;;23.23;5.97;;;;;;;;;;4993564;28;20085;-49
2024/01/25 05:00:14;;;;;;;22.48;4.25;;;7.90;99.90;;;;;;4993675;28;20029;-49
2024/01/25 05:02:39;;;;;;;30.98;5.47;;;7.80;99.90;;;;;;4994179;28;20102;-50
2024/01/25 05:05:05;;;;;;;28.52;4.65;;;7.70;99.90;;;;;;4994726;28;20050;-52
2024/01/25 05:07:30;;;;;;;27.80;5.10;;;7.70;99.90;;;;;;4994275;28;20034;-48
2024/01/25 05:09:56;;;;;;;30.50;4.93;;;7.70;99.90;;;;;;4994630;28;20040;-51
2024/01/25 05:12:21;;;;;;;29.90;5.00;;;7.70;99.90;;;;;;4993496;28;20022;-49
2024/01/25 05:14:47;;;;;;;29.77;5.43;;;7.70;99.90;;;;;;4994256;28;20022;-52
2024/01/25 05:17:12;;;;;;;28.10;5.75;;;7.80;99.90;;;;;;4993910;28;20038;-52
2024/01/25 05:19:37;;;;;;;23.40;5.45;;;7.80;99.90;;;;;;4994620;28;20547;-48
2024/01/25 05:22:06;;;;;;;27.52;5.90;;;7.80;99.90;;;;;;4993637;28;20076;-50
2024/01/25 05:24:32;;;;;;;17.80;5.25;;;7.80;99.90;;;;;;4994286;28;20025;-49
2024/01/25 05:26:58;;;;;;;28.30;4.85;;;7.70;99.90;;;;;;4994391;28;20026;-49
2024/01/25 05:29:23;;;;;;;20.00;4.90;;;7.70;99.90;;;;;;4993897;28;20038;-52
2024/01/25 05:31:49;;;;;;;23.63;4.53;;;7.70;99.90;;;;;;4994329;28;20026;-52
2024/01/25 05:34:15;;;;;;;29.65;5.07;;;7.70;99.90;;;;;;4993947;28;20102;-51
2024/01/25 05:36:41;;;;;;;29.85;4.70;;;7.70;99.90;;;;;;4993607;28;20054;-51
2024/01/25 05:39:07;;;;;;;28.63;4.50;;;7.70;99.90;;;;;;4993678;28;20037;-50
2024/01/25 05:41:33;;;;;;;27.08;5.55;;;7.80;99.90;;;;;;4993736;28;20026;-50
2024/01/25 05:43:59;;;;;;;36.72;6.75;;;7.70;99.90;;;;;;4993853;28;20028;-51
2024/01/25 05:46:25;;;;;;;26.08;4.65;;;7.70;99.90;;;;;;4993203;28;20469;-48
2024/01/25 05:48:50;;;;;;;28.23;5.63;;;7.80;99.90;;;;;;4993066;28;20105;-48
2024/01/25 05:51:16;;;;;;;29.25;5.57;;;7.70;99.90;;;;;;4993497;28;20110;-51
2024/01/25 05:53:41;;;;;;;31.27;5.45;;;7.70;99.90;;;;;;4993433;28;20488;-53
2024/01/25 05:56:07;;;;;;;34.78;6.43;;;7.60;99.90;;;;;;4993206;28;20495;-49
2024/01/25 05:58:33;;;;;;;23.13;5.32;;;7.60;99.90;;;;;;4992875;28;20072;-48
2024/01/25 06:00:58;;;;;;;35.08;6.47;;;7.60;99.90;;;;;;4992882;28;20022;-49
2024/01/25 06:03:24;;;;;;;28.25;6.00;;;7.60;99.90;;;;;;4992942;28;20022;-52
2024/01/25 06:05:49;;;;;;;34.97;5.32;;;7.60;99.90;;;;;;4993082;28;20038;-47
2024/01/25 06:08:15;;;;;;;27.85;5.68;;;7.70;99.90;;;;;;4992914;28;20376;-51
2024/01/25 06:10:40;;;;;;;33.13;5.07;;;7.60;99.90;;;;;;4993267;28;20029;-51
2024/01/25 06:13:06;;;;;;;21.50;4.47;;;7.70;99.90;;;;;;4993045;28;20026;-48
2024/01/25 06:15:31;;;;;;;30.77;6.85;;;7.70;99.90;;;;;;4993412;28;20457;-51
2024/01/25 06:17:57;;;;;;;23.92;5.75;;;7.70;99.90;;;;;;4992347;28;20031;-48
2024/01/25 06:20:23;;;;;;;28.00;6.05;;;7.80;99.90;;;;;;4992876;28;20027;-52
2024/01/25 06:22:48;;;;;;;24.58;4.45;;;7.70;99.90;;;;;;4992889;28;20069;-50
2024/01/25 06:25:14;;;;;;;24.83;5.45;;;7.60;99.90;;;;;;4993407;28;20033;-48
2024/01/25 06:27:39;;;;;;;23.50;5.75;;;7.60;99.90;;;;;;4992841;28;20455;-48
2024/01/25 06:30:05;;;;;;;25.23;4.75;;;7.60;99.90;;;;;;4992920;28;20040;-47
2024/01/25 06:32:31;;;;;;;21.58;5.45;;;7.60;99.90;;;;;;4992949;28;20398;-50
2024/01/25 06:34:57;;;;;;;23.05;6.07;;;7.60;99.90;;;;;;4997180;28;20022;-54
2024/01/25 06:37:22;;;;;;;19.35;4.38;;;7.50;99.90;;;;;;4994569;28;20247;-51
2024/01/25 06:39:48;;;;;;;25.58;5.13;;;7.50;99.90;;;;;;5002280;28;20494;-51
2024/01/25 06:42:13;;;;;;;30.58;6.82;;;7.50;99.90;;;;;;4993269;28;20026;-50
2024/01/25 06:44:39;;;;;;;19.00;3.97;;;7.40;99.90;;;;;;4992106;28;20461;-49
2024/01/25 06:47:04;;;;;;;25.83;5.38;;;7.40;99.90;;;;;;4992214;28;20077;-51
2024/01/25 06:49:30;;;;;;;35.67;5.63;;;7.30;99.90;;;;;;4991920;28;20030;-46
2024/01/25 06:51:55;;;;;;;26.70;4.53;;;7.30;99.90;;;;;;4992484;28;20041;-54
2024/01/25 06:54:21;;;;;;;23.25;4.55;;;7.30;99.90;;;;;;4998502;28;20033;-48
2024/01/25 06:56:46;;;;;;;25.10;4.97;;;7.20;99.90;;;;;;5004106;28;20369;-50
2024/01/25 06:59:12;;;;;;;29.95;5.68;;;7.10;99.90;;;;;;4998193;28;20031;-50
2024/01/25 07:01:37;;;;;;;22.10;5.95;;;7.00;99.90;;;;;;5010794;28;20097;-50
2024/01/25 07:04:03;;;;;;;25.45;6.10;;;6.90;99.90;;;;;;5003066;28;20484;-55
2024/01/25 07:06:29;;;;;;;28.88;7.30;;;6.80;99.90;;;;;;4991932;28;20058;-52
2024/01/25 07:08:54;;;;;;;37.05;6.18;;;6.80;99.90;;;;;;4991571;28;20037;-51
2024/01/25 07:11:21;;;;;;;22.55;5.00;;;6.80;99.90;;;;;;4992310;28;20117;-51
2024/01/25 07:13:46;;;;;;;24.83;5.43;;;6.70;99.90;;;;;;4991902;28;20031;-50
2024/01/25 07:16:12;;;;;;;30.10;5.75;;;6.70;99.90;;;;;;5000397;28;20064;-49
2024/01/25 07:18:37;;;;;;;31.60;6.28;;;6.70;99.90;;;;;;5010393;28;20042;-46
2024/01/25 07:21:03;;;;;;;35.38;6.47;;;6.70;99.90;;;;;;5002659;28;20101;-52
2024/01/25 07:23:33;;;;;;;15.48;4.85;;;6.60;99.90;;;;;;5016744;28;20026;-54
2024/01/25 07:25:59;;;;;;;25.42;5.50;;;6.60;99.90;;;;;;5004174;28;20022;-50
2024/01/25 07:28:25;;;;;;;33.35;5.75;;;6.50;99.90;;;;;;4995578;28;20084;-53
2024/01/25 07:30:50;;;;;;;27.10;5.22;;;6.60;99.90;;;;;;4995023;28;20373;-54
2024/01/25 07:33:16;;;;;;;28.95;4.88;;;6.60;99.90;;;;;;4999053;28;20030;-49
2024/01/25 07:35:45;;;;;;;32.63;5.78;;;6.70;99.90;;;;;;4998423;28;20105;-56
2024/01/25 07:38:12;;;;;;;20.80;6.15;;;6.80;99.90;;;;;;5008334;28;20329;-57
2024/01/25 07:40:37;;;;;;;33.55;4.80;;;6.80;99.90;;;;;;5014893;28;20339;-50
2024/01/25 07:43:03;;;;;;;24.13;4.95;;;6.90;99.90;;;;;;5014795;28;20104;-49
2024/01/25 07:45:28;;;;;;;29.73;6.40;;;7.00;99.90;;;;;;5014719;28;20491;-51
2024/01/25 07:47:54;;;;;;;38.85;8.20;;;7.00;99.90;;;;;;5013050;28;20070;-54
2024/01/25 07:50:19;;;;;;;41.95;6.47;;;7.00;99.90;;;;;;5014943;28;20033;-48
2024/01/25 07:52:45;;;;;;;24.58;5.38;;;7.00;99.90;;;;;;5014664;28;20034;-50
2024/01/25 07:55:10;;;;;;;33.75;5.65;;;7.10;99.90;;;;;;5013249;28;20064;-53
2024/01/25 07:57:36;;;;;;;31.52;7.10;;;7.20;99.90;;;;;;5009962;28;20034;-54
2024/01/25 08:00:02;;;;;;;27.38;6.38;;;7.20;99.90;;;;;;5005345;28;20038;-51
2024/01/25 08:02:27;;;;;;;33.78;5.47;;;7.10;99.90;;;;;;4997289;28;20030;-51
2024/01/25 08:04:53;;;;;;;23.40;5.80;;;7.10;99.90;;;;;;4997186;28;20434;-49
2024/01/25 08:07:19;;;;;;;24.40;4.72;;;7.10;99.90;;;;;;5009852;28;20022;-49
2024/01/25 08:09:45;;;;;;;30.00;6.63;;;7.10;99.90;;;;;;5014596;28;20454;-49
2024/01/25 08:12:11;;;;;;;24.42;6.72;;;7.20;99.90;;;;;;5014654;28;20068;-50
2024/01/25 08:14:36;;;;;;;24.02;4.68;;;7.20;99.90;;;;;;5014521;28;20022;-50
2024/01/25 08:17:02;;;;;;;27.40;4.97;;;7.30;99.90;;;;;;5014635;28;20026;-48
2024/01/25 08:19:27;;;;;;;19.42;5.38;;;7.40;99.90;;;;;;5014694;28;20026;-47
2024/01/25 08:21:53;;;;;;;24.02;5.20;;;7.50;99.90;;;;;;5014958;28;20474;-51
2024/01/25 08:24:18;;;;;;;30.67;5.30;;;7.70;99.90;;;;;;5014431;28;20511;-47
2024/01/25 08:26:44;;;;;;;20.85;6.18;;;7.70;99.90;;;;;;5012663;28;20038;-55
2024/01/25 08:29:10;;;;;;;30.70;5.93;;;7.70;99.90;;;;;;5015290;28;20022;-48
2024/01/25 08:31:36;;;;;;;26.90;6.32;;;7.80;99.90;;;;;;5014862;28;20057;-47
2024/01/25 08:34:01;;;;;;;30.65;5.45;;;7.80;99.90;;;;;;5010893;28;20025;-48
2024/01/25 08:36:27;;;;;;;28.73;6.03;;;7.80;99.90;;;;;;5002714;28;20034;-49
2024/01/25 08:38:52;;;;;;;26.75;5.05;;;7.90;99.90;;;;;;5013769;28;20024;-50
2024/01/25 08:41:18;;;;;;;21.33;5.82;;;8.00;99.90;;;;;;5002097;28;20018;-46
2024/01/25 08:43:43;;;;;;;28.95;5.93;;;8.20;99.90;;;;;;4994530;28;20084;-47
2024/01/25 08:46:09;;;;;;;23.90;5.70;;;8.30;99.90;;;;;;4994047;28;20029;-47
2024/01/25 08:48:34;;;;;;;24.73;6.22;;;8.40;99.90;;;;;;4999670;28;20068;-47
2024/01/25 08:51:00;;;;;;;26.75;5.45;;;8.50;99.90;;;;;;4999540;28;20028;-52
2024/01/25 08:53:28;;;;;;;23.45;5.18;;;8.50;99.90;;;;;;4994475;28;20105;-48
2024/01/25 08:55:54;;;;;;;27.05;5.78;;;8.60;99.90;;;;;;5013450;28;20026;-53
2024/01/25 08:58:21;;;;;;;24.45;5.05;;;8.70;99.90;;;;;;5013293;28;20057;-52
2024/01/25 09:00:46;;;;;;;25.55;6.50;;;8.70;99.90;;;;;;5013616;28;20057;-54
2024/01/25 09:03:12;;;;;;;30.15;6.03;;;8.80;99.90;;;;;;5012491;28;20049;-56
2024/01/25 09:05:41;;;;;;;23.92;6.35;;;8.80;99.90;;;;;;5012876;28;20104;-52
2024/01/25 09:08:07;;;;;;;27.77;6.22;;;8.80;99.90;;;;;;5012856;28;20379;-51
2024/01/25 09:10:32;;;;;;;25.25;6.43;;;8.90;99.90;;;;;;5013445;28;20037;-51
2024/01/25 09:12:58;;;;;;;26.30;5.40;;;9.10;99.90;;;;;;5002216;28;20073;-50
2024/01/25 09:15:23;;;;;;;28.33;6.38;;;9.50;99.90;;;;;;5010718;28;20443;-47
2024/01/25 09:17:49;;;;;;;24.75;5.82;;;10.00;99.90;;;;;;5007774;28;20030;-54
2024/01/25 09:20:15;;;;;;;25.25;5.38;;;10.60;99.90;;;;;;4993506;28;20499;-46
2024/01/25 09:22:41;;;;;;;31.48;6.32;;;11.30;99.90;;;;;;4992628;28;21274;-49
2024/01/25 09:25:07;;;;;;;24.08;5.70;;;12.10;99.90;;;;;;5004364;28;20053;-49
2024/01/25 09:27:33;;;;;;;22.25;5.88;;;12.60;99.90;;;;;;4993152;28;20077;-52
2024/01/25 09:29:58;;;;;;;24.27;5.78;;;13.00;99.90;;;;;;5005885;28;20018;-51
2024/01/25 09:32:24;;;;;;;26.95;5.68;;;13.30;99.90;;;;;;5012881;28;20033;-51
2024/01/25 09:34:49;;;;;;;28.20;7.55;;;13.50;99.90;;;;;;5012709;28;20076;-51
2024/01/25 09:37:15;;;;;;;25.70;4.95;;;13.30;99.90;;;;;;5006264;28;20411;-51
2024/01/25 09:39:40;;;;;;;23.00;5.85;;;13.00;99.90;;;;;;4999292;28;20120;-51
2024/01/25 09:42:07;;;;;;;24.73;5.88;;;12.60;99.90;;;;;;5008169;28;20410;-49
2024/01/25 09:44:33;;;;;;;26.75;6.72;;;12.40;99.90;;;;;;4992255;28;20511;-51
2024/01/25 09:47:02;;;;;;;32.17;6.90;;;12.20;99.90;;;;;;4999351;28;20105;-48
2024/01/25 09:49:27;;;;;;;25.13;6.30;;;11.90;99.90;;;;;;5007093;28;20034;-49
2024/01/25 09:51:55;;;;;;;26.98;6.18;;;11.80;99.90;;;;;;5002272;28;20030;-49
2024/01/25 09:54:21;;;;;;;24.50;5.00;;;11.70;99.90;;;;;;4999569;28;20038;-52
2024/01/25 09:56:51;;;;;;;19.63;4.82;;;11.80;99.90;;;;;;5012124;28;20371;-54
2024/01/25 09:59:16;;;;;;;21.80;6.40;;;11.90;99.90;;;;;;4993556;28;20550;-52
2024/01/25 10:01:43;;;;;;;24.23;6.65;;;12.10;99.90;;;;;;4994072;28;20305;-49
2024/01/25 10:04:09;;;;;;;23.55;5.18;;;12.00;99.90;;;;;;4992943;28;20081;-53
2024/01/25 10:06:34;;;;;;;19.08;5.63;;;12.00;99.90;;;;;;4992916;28;20038;-53
2024/01/25 10:09:00;;;;;;;28.85;5.45;;;11.90;99.90;;;;;;4993551;28;20372;-52
2024/01/25 10:11:28;;;;;;;33.65;6.20;;;11.90;99.90;;;;;;4993422;28;20495;-57
2024/01/25 10:13:56;;;;;;;33.15;5.30;;;11.90;99.90;;;;;;5005183;28;20061;-48
2024/01/25 10:16:22;;;;;;;27.30;5.68;;;12.00;99.90;;;;;;5011988;28;20518;-52
2024/01/25 10:18:48;;;;;;;24.52;5.32;;;12.00;99.90;;;;;;5010891;28;20109;-54
2024/01/25 10:21:14;;;;;;;26.08;6.20;;;11.90;99.90;;;;;;5006832;28;20033;-52
2024/01/25 10:23:43;;;;;;;29.63;5.72;;;11.90;99.90;;;;;;4997312;28;20080;-51
2024/01/25 10:26:09;;;;;;;35.90;6.13;;;11.90;99.90;;;;;;5007007;28;20040;-54
2024/01/25 10:28:34;;;;;;;28.98;5.30;;;12.00;99.90;;;;;;4999585;28;20030;-52
2024/01/25 10:31:03;;;;;;;26.40;6.82;;;12.10;99.90;;;;;;4995671;28;20037;-52
2024/01/25 10:33:30;;;;;;;22.52;6.25;;;12.40;99.90;;;;;;5011741;28;20044;-51
2024/01/25 10:36:02;;;;;;;28.67;5.95;;;12.50;99.90;;;;;;5010656;28;20536;-50
2024/01/25 10:38:34;;;;;;;26.65;5.10;;;12.70;99.90;;;;;;5010434;28;20411;-51
2024/01/25 10:41:02;;;;;;;21.98;6.13;;;12.70;99.90;;;;;;5012038;28;20033;-53
2024/01/25 10:43:30;;;;;;;100.05;50.53;;;12.90;99.90;;;;;;5011926;28;20062;-49
2024/01/25 10:45:58;;;;;;;70.75;26.05;;;13.00;99.90;;;;;;5011459;28;20105;-49
2024/01/25 10:48:24;;;;;;;29.65;6.85;;;13.10;99.90;;;;;;5006797;28;20555;-52
2024/01/25 10:50:50;;;;;;;23.33;5.97;;;12.80;99.90;;;;;;4993044;28;20022;-49
2024/01/25 10:53:16;;;;;;;30.80;5.80;;;12.80;99.90;;;;;;4995652;28;20040;-49
2024/01/25 10:55:42;;;;;;;24.77;5.20;;;12.80;99.90;;;;;;5012955;28;20054;-50
2024/01/25 10:58:11;;;;;;;27.27;5.90;;;12.70;99.90;;;;;;5015231;28;20068;-48
2024/01/25 11:00:36;;;;;;;31.73;5.90;;;12.40;99.90;;;;;;5010472;28;20038;-49
2024/01/25 11:03:04;;;;;;;29.15;6.90;;;12.20;99.90;;;;;;4994769;28;20025;-49
2024/01/25 11:05:30;;;;;;;27.35;5.05;;;12.10;99.90;;;;;;5011225;28;20038;-48
2024/01/25 11:07:56;;;;;;;32.25;5.85;;;12.00;99.90;;;;;;5003131;28;20042;-49
2024/01/25 11:10:26;;;;;;;35.47;7.30;;;11.90;99.90;;;;;;5006645;28;20496;-53
2024/01/25 11:12:57;;;;;;;30.25;6.13;;;12.00;99.90;;;;;;5001915;28;20031;-52
2024/01/25 11:15:29;;;;;;;28.52;7.07;;;11.90;99.90;;;;;;5006776;28;20034;-50
2024/01/25 11:17:55;;;;;;;24.02;6.15;;;11.80;99.90;;;;;;4995328;28;20035;-51
2024/01/25 11:20:25;;;;;;;22.27;5.57;;;11.80;99.90;;;;;;4995836;28;20030;-51
2024/01/25 11:23:06;;;;;;;23.67;5.43;;;11.70;99.90;;;;;;4996223;28;20025;-50
2024/01/25 11:25:34;;;;;;;19.80;5.00;;;11.70;99.90;;;;;;4995753;28;20438;-52
2024/01/25 11:28:01;;;;;;;21.17;6.20;;;11.60;99.90;;;;;;4995439;28;20018;-55
2024/01/25 11:30:28;;;;;;;21.35;4.80;;;11.60;99.90;;;;;;4995436;28;20030;-51
2024/01/25 11:32:53;;;;;;;31.45;5.45;;;11.60;99.90;;;;;;4995765;28;20038;-49
2024/01/25 11:35:20;;;;;;;25.63;6.00;;;11.60;99.90;;;;;;4995714;28;20022;-50
2024/01/25 11:37:46;;;;;;;22.45;6.15;;;11.60;99.90;;;;;;5001670;28;20022;-51
2024/01/25 11:40:14;;;;;;;39.72;8.32;;;11.60;99.90;;;;;;5004085;28;20030;-55
2024/01/25 11:42:42;;;;;;;34.50;7.13;;;11.60;99.90;;;;;;4995521;28;20069;-53
2024/01/25 11:45:09;;;;;;;24.13;5.13;;;11.70;99.90;;;;;;4995302;28;20027;-49
2024/01/25 11:47:35;;;;;;;17.63;5.20;;;11.70;99.90;;;;;;4995187;28;20034;-51
2024/01/25 11:50:02;;;;;;;24.95;5.38;;;11.70;99.90;;;;;;4995381;28;20029;-51
2024/01/25 11:52:28;;;;;;;29.55;5.70;;;11.60;99.90;;;;;;4995397;28;20035;-50
2024/01/25 11:54:54;;;;;;;34.00;4.72;;;11.70;99.90;;;;;;4995355;28;20033;-47
2024/01/25 11:57:20;;;;;;;39.47;11.82;;;11.80;99.90;;;;;;4995106;28;20365;-49
2024/01/25 11:59:46;;;;;;;37.17;11.60;;;11.90;99.90;;;;;;4995075;28;20072;-50
2024/01/25 12:02:14;;;;;;;38.25;11.38;;;12.00;99.90;;;;;;5022060;28;20033;-53
2024/01/25 12:04:40;;;;;;;30.75;6.05;;;12.00;99.90;;;;;;5014487;28;20018;-50
2024/01/25 12:07:07;;;;;;;27.95;6.82;;;12.00;99.90;;;;;;5014038;28;20076;-48
2024/01/25 12:09:32;;;;;;;20.92;5.13;;;12.10;99.90;;;;;;5013023;28;20376;-48
2024/01/25 12:12:00;;;;;;;23.20;6.97;;;12.00;99.90;;;;;;5014618;28;20083;-52
2024/01/25 12:14:27;;;;;;;22.67;5.32;;;11.80;99.90;;;;;;5014618;28;20108;-51
2024/01/25 12:16:55;;;;;;;18.63;5.20;;;11.60;99.90;;;;;;4996458;28;20415;-47
2024/01/25 12:19:21;;;;;;;21.05;5.82;;;11.70;99.90;;;;;;4996488;28;20536;-51
2024/01/25 12:21:47;;;;;;;24.70;5.35;;;11.70;99.90;;;;;;5012476;28;20066;-50
2024/01/25 12:24:12;;;;;;;24.63;5.10;;;11.80;99.90;;;;;;5014989;28;20030;-51
2024/01/25 12:26:38;;;;;;;22.25;4.90;;;12.00;99.90;;;;;;5002462;28;20034;-51
2024/01/25 12:29:04;;;;;;;28.13;5.53;;;12.00;99.90;;;;;;4998599;28;20443;-54
2024/01/25 12:31:30;;;;;;;26.55;7.22;;;12.00;99.90;;;;;;4999658;28;20113;-55
2024/01/25 12:33:57;;;;;;;28.05;6.15;;;12.00;99.90;;;;;;4996546;28;20081;-53
2024/01/25 12:36:23;;;;;;;25.38;4.82;;;11.90;99.90;;;;;;4994827;28;20022;-50